createdAt,value
2018-04-29T00:02:10.983Z,95461.28
2018-04-29T00:04:36.995Z,95464.45
2018-04-29T00:07:03.029Z,95465.83
2018-04-29T00:09:29.007Z,95471.36
2018-04-29T00:11:55.014Z,95470.17
2018-04-29T00:14:21.037Z,95470.17
2018-04-29T00:16:47.052Z,95466.59
2018-04-29T00:19:13.060Z,95467.41
2018-04-29T00:21:39.079Z,95467.58
2018-04-29T00:24:05.077Z,95464.00
2018-04-29T00:26:31.090Z,95463.59
2018-04-29T00:28:57.097Z,95464.00
2018-04-29T00:31:23.099Z,95462.22
2018-04-29T00:33:49.148Z,95462.62
2018-04-29T00:36:15.155Z,95457.30
2018-04-29T00:38:41.195Z,95462.02
2018-04-29T00:41:07.166Z,95459.66
2018-04-29T00:43:33.172Z,95457.47
2018-04-29T00:45:59.177Z,95457.87
2018-04-29T00:48:25.187Z,95464.37
2018-04-29T00:50:51.236Z,95465.58
2018-04-29T00:53:17.260Z,95460.23
2018-04-29T00:55:43.221Z,95460.23
2018-04-29T00:58:09.224Z,95462.17
2018-04-29T01:00:35.267Z,95460.80
2018-04-29T01:03:01.256Z,95455.47
2018-04-29T01:05:27.272Z,95452.30
2018-04-29T01:07:53.280Z,95449.55
2018-04-29T01:10:19.288Z,95451.33
2018-04-29T01:12:45.324Z,95453.68
2018-04-29T01:15:11.289Z,95446.38
2018-04-29T01:17:37.289Z,95447.75
2018-04-29T01:20:03.332Z,95444.99
2018-04-29T01:22:29.338Z,95447.75
2018-04-29T01:24:55.338Z,95450.11
2018-04-29T01:27:21.341Z,95446.95
2018-04-29T01:29:47.356Z,95453.48
2018-04-29T01:32:13.359Z,95454.25
2018-04-29T01:34:39.385Z,95450.72
2018-04-29T01:37:05.397Z,95447.95
2018-04-29T01:39:31.420Z,95450.72
2018-04-29T01:41:57.454Z,95457.99
2018-04-29T01:44:23.490Z,95445.76
2018-04-29T01:46:49.500Z,95448.33
2018-04-29T01:49:15.479Z,95438.86
2018-04-29T01:51:41.501Z,95442.19
2018-04-29T01:54:07.499Z,95436.66
2018-04-29T01:56:33.504Z,95435.28
2018-04-29T01:58:59.509Z,95428.37
2018-04-29T02:01:25.521Z,95423.43
2018-04-29T02:03:51.526Z,95425.22
2018-04-29T02:06:17.530Z,95420.45
2018-04-29T02:08:43.529Z,95419.89
2018-04-29T02:11:09.551Z,95418.50
2018-04-29T02:13:35.591Z,95422.65
2018-04-29T02:16:01.568Z,95418.91
2018-04-29T02:18:27.572Z,95412.98
2018-04-29T02:20:53.575Z,95414.36
2018-04-29T02:23:19.581Z,95412.17
2018-04-29T02:25:45.591Z,95408.03
2018-04-29T02:28:11.597Z,95412.17
2018-04-29T02:30:37.598Z,95404.86
2018-04-29T02:33:03.715Z,95402.67
2018-04-29T02:35:29.715Z,95399.91
2018-04-29T02:37:55.738Z,95405.06
2018-04-29T02:40:21.750Z,95396.77
2018-04-29T02:42:47.758Z,95398.94
2018-04-29T02:45:13.766Z,95394.39
2018-04-29T02:47:39.809Z,95399.53
2018-04-29T02:50:05.822Z,95394.98
2018-04-29T02:52:31.827Z,95402.47
2018-04-29T02:54:57.835Z,95399.70
2018-04-29T02:57:23.882Z,95391.42
2018-04-29T02:59:49.878Z,95384.11
2018-04-29T03:02:15.893Z,95391.98
2018-04-29T03:04:41.891Z,95396.73
2018-04-29T03:07:07.909Z,95393.57
2018-04-29T03:09:33.910Z,95396.73
2018-04-29T03:11:59.920Z,95391.59
2018-04-29T03:14:25.954Z,95391.21
2018-04-29T03:16:51.926Z,95390.81
2018-04-29T03:19:17.942Z,95384.31
2018-04-29T03:21:43.949Z,95387.64
2018-04-29T03:24:09.966Z,95390.81
2018-04-29T03:26:35.981Z,95395.93
2018-04-29T03:29:02.080Z,95394.55
2018-04-29T03:31:28.098Z,95400.64
2018-04-29T03:33:54.138Z,95400.23
2018-04-29T03:36:20.109Z,95403.00
2018-04-29T03:38:46.127Z,95403.41
2018-04-29T03:41:12.135Z,95407.14
2018-04-29T03:43:38.144Z,95405.77
2018-04-29T03:46:04.182Z,95406.16
2018-04-29T03:48:30.191Z,95406.16
2018-04-29T03:50:56.229Z,95405.36
2018-04-29T03:53:22.198Z,95408.12
2018-04-29T03:55:48.250Z,95413.44
2018-04-29T03:58:14.294Z,95415.63
2018-04-29T04:00:40.265Z,95417.78
2018-04-29T04:03:06.293Z,95417.00
2018-04-29T04:05:32.302Z,95413.23
2018-04-29T04:07:58.312Z,95410.10
2018-04-29T04:10:24.328Z,95403.36
2018-04-29T04:12:50.369Z,95410.27
2018-04-29T04:15:16.415Z,95410.27
2018-04-29T04:17:42.400Z,95414.01
2018-04-29T04:20:08.402Z,95419.13
2018-04-29T04:22:34.409Z,95420.91
2018-04-29T04:25:00.461Z,95425.45
2018-04-29T04:27:26.510Z,95424.44
2018-04-29T04:29:52.478Z,95424.48
2018-04-29T04:32:18.487Z,95426.47
2018-04-29T04:34:44.522Z,95426.88
2018-04-29T04:37:10.515Z,95432.03
2018-04-29T04:39:36.509Z,95431.06
2018-04-29T04:42:02.529Z,95428.30
2018-04-29T04:44:28.551Z,95431.67
2018-04-29T04:46:54.596Z,95431.67
2018-04-29T04:49:20.564Z,95431.51
2018-04-29T04:51:46.574Z,95433.50
2018-04-29T04:54:12.609Z,95432.12
2018-04-29T04:56:38.576Z,95430.38
2018-04-29T04:59:04.622Z,95427.81
2018-04-29T05:01:30.603Z,95428.62
2018-04-29T05:03:56.603Z,95426.23
2018-04-29T05:06:22.642Z,95427.23
2018-04-29T05:08:48.618Z,95423.88
2018-04-29T05:11:14.626Z,95428.02
2018-04-29T05:13:40.656Z,95417.78
2018-04-29T05:16:06.684Z,95417.20
2018-04-29T05:18:32.658Z,95422.13
2018-04-29T05:20:58.695Z,95419.77
2018-04-29T05:23:24.675Z,95412.30
2018-04-29T05:25:50.680Z,95417.81
2018-04-29T05:28:16.698Z,95420.17
2018-04-29T05:30:42.693Z,95413.67
2018-04-29T05:33:08.738Z,95416.64
2018-04-29T05:35:34.740Z,95416.07
2018-04-29T05:38:00.790Z,95414.48
2018-04-29T05:40:26.799Z,95410.55
2018-04-29T05:42:52.806Z,95414.28
2018-04-29T05:45:18.806Z,95410.38
2018-04-29T05:47:44.832Z,95409.41
2018-04-29T05:50:10.838Z,95407.02
2018-04-29T05:52:36.850Z,95409.20
2018-04-29T05:55:02.854Z,95405.10
2018-04-29T05:57:28.898Z,95402.17
2018-04-29T05:59:54.910Z,95410.09
2018-04-29T06:02:20.906Z,95412.32
2018-04-29T06:04:46.923Z,95406.84
2018-04-29T06:07:12.946Z,95405.81
2018-04-29T06:09:38.953Z,95407.37
2018-04-29T06:12:04.962Z,95401.44
2018-04-29T06:14:30.972Z,95405.78
2018-04-29T06:16:57.195Z,95407.53
2018-04-29T06:19:23.249Z,95409.52
2018-04-29T06:21:49.628Z,95414.44
2018-04-29T06:24:15.644Z,95417.97
2018-04-29T06:26:41.674Z,95419.76
2018-04-29T06:29:07.675Z,95421.14
2018-04-29T06:31:33.697Z,95421.71
2018-04-29T06:33:59.718Z,95418.55
2018-04-29T06:36:25.864Z,95418.95
2018-04-29T06:38:51.893Z,95422.89
2018-04-29T06:41:17.887Z,95416.19
2018-04-29T06:43:43.863Z,95419.92
2018-04-29T06:46:09.881Z,95413.39
2018-04-29T06:48:35.920Z,95415.01
2018-04-29T06:51:01.913Z,95417.16
2018-04-29T06:53:28.043Z,95411.64
2018-04-29T06:55:54.011Z,95415.38
2018-04-29T06:58:20.072Z,95416.55
2018-04-29T07:00:46.114Z,95420.53
2018-04-29T07:03:12.138Z,95418.55
2018-04-29T07:05:38.152Z,95420.13
2018-04-29T07:08:04.261Z,95412.28
2018-04-29T07:10:30.186Z,95410.74
2018-04-29T07:12:56.181Z,95413.95
2018-04-29T07:15:22.235Z,95416.61
2018-04-29T07:17:48.207Z,95411.09
2018-04-29T07:20:20.693Z,95413.61
2018-04-29T07:22:46.703Z,95412.56
2018-04-29T07:25:13.390Z,95406.30
2018-04-29T07:27:39.437Z,95410.72
2018-04-29T07:30:05.437Z,95415.44
2018-04-29T07:32:32.010Z,95409.38
2018-04-29T07:34:58.013Z,95411.56
2018-04-29T07:37:23.995Z,95409.55
2018-04-29T07:39:50.027Z,95407.80
2018-04-29T07:42:16.028Z,95399.06
2018-04-29T07:44:42.097Z,95400.20
2018-04-29T07:47:08.189Z,95401.02
2018-04-29T07:49:34.162Z,95403.89
2018-04-29T07:52:00.185Z,95397.95
2018-04-29T07:54:26.191Z,95403.92
2018-04-29T07:56:52.261Z,95406.89
2018-04-29T07:59:18.386Z,95404.33
2018-04-29T08:01:44.423Z,95403.24
2018-04-29T08:04:10.447Z,95405.36
2018-04-29T08:06:36.483Z,95404.34
2018-04-29T08:09:02.490Z,95402.76
2018-04-29T08:11:28.502Z,95407.31
2018-04-29T08:13:54.511Z,95400.13
2018-04-29T08:16:20.517Z,95399.93
2018-04-29T08:18:46.530Z,95397.17
2018-04-29T08:21:12.537Z,95391.81
2018-04-29T08:23:38.558Z,95387.66
2018-04-29T08:26:04.565Z,95388.23
2018-04-29T08:28:30.571Z,95392.78
2018-04-29T08:30:56.578Z,95384.50
2018-04-29T08:33:22.619Z,95383.72
2018-04-29T08:35:48.636Z,95379.34
2018-04-29T08:38:14.980Z,95380.55
2018-04-29T08:40:40.961Z,95370.48
2018-04-29T08:43:06.989Z,95381.70
2018-04-29T08:45:33.001Z,95374.22
2018-04-29T08:47:58.996Z,95384.86
2018-04-29T08:50:25.098Z,95369.47
2018-04-29T08:52:51.119Z,95367.11
2018-04-29T08:55:17.201Z,95361.58
2018-04-29T08:57:43.201Z,95360.57
2018-04-29T09:00:09.207Z,95353.30
2018-04-29T09:02:35.213Z,95359.39
2018-04-29T09:05:01.392Z,95360.37
2018-04-29T09:07:27.425Z,95353.87
2018-04-29T09:09:53.437Z,95351.51
2018-04-29T09:12:19.444Z,95360.77
2018-04-29T09:14:45.550Z,95352.08
2018-04-29T09:17:11.560Z,95344.77
2018-04-29T09:19:37.609Z,95351.72
2018-04-29T09:22:03.614Z,95352.56
2018-04-29T09:24:29.777Z,95338.23
2018-04-29T09:26:56.021Z,95345.56
2018-04-29T09:29:22.340Z,95340.44
2018-04-29T09:31:48.927Z,95346.84
2018-04-29T09:34:14.973Z,95340.55
2018-04-29T09:36:40.951Z,95341.39
2018-04-29T09:39:06.956Z,95346.52
2018-04-29T09:41:32.974Z,95339.64
2018-04-29T09:43:58.993Z,95342.27
2018-04-29T09:46:24.998Z,95339.55
2018-04-29T09:48:51.018Z,95337.39
2018-04-29T09:51:17.023Z,95331.05
2018-04-29T09:53:43.050Z,95331.73
2018-04-29T09:56:09.151Z,95332.33
2018-04-29T09:58:35.131Z,95329.44
2018-04-29T10:01:01.160Z,95321.78
2018-04-29T10:03:27.210Z,95318.42
2018-04-29T10:05:53.406Z,95324.11
2018-04-29T10:08:19.425Z,95323.30
2018-04-29T10:10:45.459Z,95317.78
2018-04-29T10:13:11.997Z,95320.98
2018-04-29T10:15:37.979Z,95323.78
2018-04-29T10:18:04.150Z,95324.41
2018-04-29T10:20:30.155Z,95315.11
2018-04-29T10:22:56.397Z,95315.55
2018-04-29T10:25:22.565Z,95306.28
2018-04-29T10:27:48.583Z,95316.97
2018-04-29T10:30:14.625Z,95309.89
2018-04-29T10:32:40.708Z,95304.56
2018-04-29T10:35:06.688Z,95308.20
2018-04-29T10:37:32.696Z,95306.25
2018-04-29T10:40:01.235Z,95305.84
2018-04-29T10:42:27.239Z,95298.33
2018-04-29T10:44:53.283Z,95294.28
2018-04-29T10:47:19.285Z,95298.87
2018-04-29T10:49:45.331Z,95298.29
2018-04-29T10:52:11.346Z,95296.13
2018-04-29T10:54:37.356Z,95295.94
2018-04-29T10:57:03.353Z,95303.22
2018-04-29T10:59:29.380Z,95299.23
2018-04-29T11:01:56.144Z,95295.46
2018-04-29T11:04:22.469Z,95302.17
2018-04-29T11:06:48.384Z,95295.63
2018-04-29T11:09:14.409Z,95289.50
2018-04-29T11:11:40.438Z,95292.03
2018-04-29T11:14:06.424Z,95289.47
2018-04-29T11:16:32.434Z,95282.55
2018-04-29T11:18:58.798Z,95280.37
2018-04-29T11:21:24.828Z,95284.31
2018-04-29T11:23:51.115Z,95282.12
2018-04-29T11:26:17.156Z,95280.16
2018-04-29T11:28:43.274Z,95283.70
2018-04-29T11:31:09.289Z,95271.06
2018-04-29T11:33:35.308Z,95272.45
2018-04-29T11:36:01.342Z,95275.01
2018-04-29T11:38:27.463Z,95272.04
2018-04-29T11:40:53.602Z,95267.48
2018-04-29T11:43:19.646Z,95263.52
2018-04-29T11:45:45.891Z,95261.36
2018-04-29T11:48:11.838Z,95260.58
2018-04-29T11:50:37.879Z,95255.02
2018-04-29T11:53:03.876Z,95252.42
2018-04-29T11:55:30.066Z,95250.44
2018-04-29T11:57:56.050Z,95253.44
2018-04-29T12:00:22.099Z,95247.10
2018-04-29T12:02:48.106Z,95239.99
2018-04-29T12:05:14.143Z,95240.62
2018-04-29T12:07:40.120Z,95235.88
2018-04-29T12:10:06.164Z,95234.16
2018-04-29T12:12:32.194Z,95221.31
2018-04-29T12:14:58.199Z,95225.86
2018-04-29T12:17:24.228Z,95219.53
2018-04-29T12:19:50.292Z,95227.41
2018-04-29T12:22:16.315Z,95229.98
2018-04-29T12:24:42.365Z,95220.08
2018-04-29T12:27:08.400Z,95217.34
2018-04-29T12:29:34.409Z,95209.69
2018-04-29T12:32:00.421Z,95205.74
2018-04-29T12:34:26.477Z,95209.05
2018-04-29T12:36:52.485Z,95208.61
2018-04-29T12:39:18.550Z,95196.95
2018-04-29T12:41:44.578Z,95198.30
2018-04-29T12:44:10.588Z,95191.39
2018-04-29T12:46:36.947Z,95193.59
2018-04-29T12:49:02.975Z,95186.88
2018-04-29T12:51:28.970Z,95186.50
2018-04-29T12:53:54.980Z,95183.57
2018-04-29T12:56:21.000Z,95177.47
2018-04-29T12:58:47.025Z,95171.94
2018-04-29T13:01:13.030Z,95179.02
2018-04-29T13:03:39.053Z,95169.52
2018-04-29T13:06:05.066Z,95170.73
2018-04-29T13:08:31.098Z,95164.39
2018-04-29T13:10:57.160Z,95156.71
2018-04-29T13:13:23.163Z,95156.31
2018-04-29T13:15:49.174Z,95160.66
2018-04-29T13:18:15.217Z,95158.47
2018-04-29T13:20:41.225Z,95156.88
2018-04-29T13:23:07.229Z,95149.54
2018-04-29T13:25:33.260Z,95158.81
2018-04-29T13:27:59.284Z,95153.66
2018-04-29T13:30:25.288Z,95151.47
2018-04-29T13:32:51.336Z,95158.17
2018-04-29T13:35:17.373Z,95157.77
2018-04-29T13:37:43.382Z,95153.02
2018-04-29T13:40:09.406Z,95150.26
2018-04-29T13:42:35.438Z,95132.30
2018-04-29T13:45:01.445Z,95146.69
2018-04-29T13:47:27.457Z,95150.26
2018-04-29T13:49:53.470Z,95135.47
2018-04-29T13:52:19.561Z,95134.52
2018-04-29T13:54:45.537Z,95134.14
2018-04-29T13:57:11.543Z,95139.47
2018-04-29T13:59:37.596Z,95138.89
2018-04-29T14:02:03.651Z,95139.87
2018-04-29T14:04:29.760Z,95140.27
2018-04-29T14:06:55.775Z,95138.09
2018-04-29T14:09:21.780Z,95139.70
2018-04-29T14:11:58.708Z,95137.71
2018-04-29T14:14:24.817Z,95131.61
2018-04-29T14:16:50.824Z,95133.42
2018-04-29T14:19:16.937Z,95131.67
2018-04-29T14:21:42.946Z,95128.06
2018-04-29T14:24:09.360Z,95142.12
2018-04-29T14:26:35.331Z,95131.64
2018-04-29T14:29:01.342Z,95135.20
2018-04-29T14:31:27.358Z,95134.80
2018-04-29T14:33:53.390Z,95127.89
2018-04-29T14:36:19.383Z,95132.23
2018-04-29T14:38:45.418Z,95131.90
2018-04-29T14:41:11.435Z,95136.45
2018-04-29T14:43:37.442Z,95127.75
2018-04-29T14:46:03.490Z,95130.69
2018-04-29T14:48:29.518Z,95130.28
2018-04-29T14:50:55.523Z,95124.95
2018-04-29T14:53:21.583Z,95127.89
2018-04-29T14:55:47.582Z,95124.16
2018-04-29T14:58:13.582Z,95125.70
2018-04-29T15:00:39.671Z,95123.72
2018-04-29T15:03:05.709Z,95119.41
2018-04-29T15:05:31.726Z,95119.58
2018-04-29T15:07:57.770Z,95116.81
2018-04-29T15:10:23.824Z,95115.84
2018-04-29T15:12:50.025Z,95113.88
2018-04-29T15:15:16.146Z,95118.22
2018-04-29T15:17:42.191Z,95119.23
2018-04-29T15:20:08.175Z,95117.65
2018-04-29T15:22:34.194Z,95104.84
2018-04-29T15:25:00.237Z,95106.19
2018-04-29T15:27:26.243Z,95109.96
2018-04-29T15:29:52.244Z,95103.45
2018-04-29T15:32:18.386Z,95097.70
2018-04-29T15:34:44.857Z,95098.91
2018-04-29T15:37:10.897Z,95097.38
2018-04-29T15:39:36.929Z,95095.39
2018-04-29T15:42:02.911Z,95092.05
2018-04-29T15:44:28.956Z,95098.19
2018-04-29T15:46:54.965Z,95099.19
2018-04-29T15:49:21.102Z,95096.20
2018-04-29T15:51:47.140Z,95096.98
2018-04-29T15:54:13.135Z,95097.52
2018-04-29T15:56:39.152Z,95099.31
2018-04-29T15:59:05.260Z,95093.20
2018-04-29T16:01:31.648Z,95096.98
2018-04-29T16:03:58.077Z,95097.55
2018-04-29T16:06:24.088Z,95097.55
2018-04-29T16:08:50.138Z,95096.75
2018-04-29T16:11:16.126Z,95096.98
2018-04-29T16:13:42.128Z,95097.15
2018-04-29T16:16:08.154Z,95101.27
2018-04-29T16:18:34.196Z,95100.29
2018-04-29T16:21:00.214Z,95099.48
2018-04-29T16:23:26.220Z,95098.70
2018-04-29T16:25:52.249Z,95097.70
2018-04-29T16:28:18.329Z,95095.73
2018-04-29T16:30:44.298Z,95101.27
2018-04-29T16:33:10.344Z,95107.59
2018-04-29T16:35:36.421Z,95109.56
2018-04-29T16:38:02.437Z,95109.19
2018-04-29T16:40:28.611Z,95108.98
2018-04-29T16:42:54.624Z,95107.77
2018-04-29T16:45:20.642Z,95108.72
2018-04-29T16:47:46.662Z,95115.03
2018-04-29T16:50:12.691Z,95109.50
2018-04-29T16:52:39.594Z,95113.64
2018-04-29T16:55:05.595Z,95111.86
2018-04-29T16:57:31.643Z,95110.08
2018-04-29T16:59:57.687Z,95112.84
2018-04-29T17:02:23.700Z,95113.64
2018-04-29T17:04:49.707Z,95120.78
2018-04-29T17:07:15.757Z,95119.41
2018-04-29T17:09:41.768Z,95122.00
2018-04-29T17:12:07.811Z,95129.22
2018-04-29T17:14:34.124Z,95128.02
2018-04-29T17:17:00.198Z,95126.60
2018-04-29T17:19:26.214Z,95123.00
2018-04-29T17:21:52.324Z,95132.88
2018-04-29T17:24:18.345Z,95131.06
2018-04-29T17:26:44.378Z,95137.02
2018-04-29T17:29:10.520Z,95142.32
2018-04-29T17:31:36.396Z,95149.62
2018-04-29T17:34:02.415Z,95148.80
2018-04-29T17:36:28.448Z,95153.75
2018-04-29T17:38:54.449Z,95158.30
2018-04-29T17:41:20.594Z,95159.84
2018-04-29T17:43:46.597Z,95154.15
2018-04-29T17:46:12.607Z,95161.46
2018-04-29T17:48:38.655Z,95162.04
2018-04-29T17:51:05.012Z,95161.26
2018-04-29T17:53:31.231Z,95164.02
2018-04-29T17:55:57.273Z,95166.98
2018-04-29T17:58:23.279Z,95177.47
2018-04-29T18:00:49.342Z,95175.08
2018-04-29T18:03:15.365Z,95170.93
2018-04-29T18:05:41.343Z,95173.33
2018-04-29T18:08:07.393Z,95174.50
2018-04-29T18:10:33.408Z,95180.44
2018-04-29T18:12:59.415Z,95183.77
2018-04-29T18:15:25.459Z,95188.95
2018-04-29T18:17:51.589Z,95189.91
2018-04-29T18:20:17.859Z,95197.83
2018-04-29T18:22:43.864Z,95197.42
2018-04-29T18:25:09.879Z,95203.92
2018-04-29T18:27:36.080Z,95198.80
2018-04-29T18:30:02.049Z,95205.88
2018-04-29T18:32:28.204Z,95212.62
2018-04-29T18:34:54.208Z,95214.37
2018-04-29T18:37:20.236Z,95211.78
2018-04-29T18:39:46.242Z,95210.37
2018-04-29T18:42:12.260Z,95208.58
2018-04-29T18:44:38.315Z,95214.52
2018-04-29T18:47:04.317Z,95211.78
2018-04-29T18:49:30.337Z,95216.91
2018-04-29T18:51:56.382Z,95214.55
2018-04-29T18:54:22.440Z,95215.38
2018-04-29T18:56:48.623Z,95214.81
2018-04-29T18:59:14.674Z,95216.39
2018-04-29T19:01:40.722Z,95213.05
2018-04-29T19:04:10.319Z,95214.20
2018-04-29T19:06:36.402Z,95223.27
2018-04-29T19:09:02.421Z,95217.91
2018-04-29T19:11:28.431Z,95213.20
2018-04-29T19:13:54.776Z,95219.83
2018-04-29T19:16:21.584Z,95224.81
2018-04-29T19:18:47.616Z,95221.03
2018-04-29T19:21:14.179Z,95223.02
2018-04-29T19:23:40.866Z,95222.42
2018-04-29T19:26:06.908Z,95224.34
2018-04-29T19:28:32.889Z,95222.36
2018-04-29T19:30:58.912Z,95223.13
2018-04-29T19:33:24.921Z,95218.98
2018-04-29T19:35:50.933Z,95220.74
2018-04-29T19:38:17.034Z,95217.38
2018-04-29T19:40:43.072Z,95214.61
2018-04-29T19:43:09.270Z,95215.41
2018-04-29T19:45:35.246Z,95215.59
2018-04-29T19:48:01.309Z,95217.77
2018-04-29T19:50:27.321Z,95213.02
2018-04-29T19:52:53.572Z,95222.50
2018-04-29T19:55:27.711Z,95218.55
2018-04-29T19:57:54.329Z,95222.13
2018-04-29T20:00:20.384Z,95226.27
2018-04-29T20:02:46.426Z,95227.05
2018-04-29T20:05:12.446Z,95233.95
2018-04-29T20:07:38.511Z,95235.54
2018-04-29T20:10:04.828Z,95238.30
2018-04-29T20:12:31.908Z,95235.13
2018-04-29T20:14:57.954Z,95235.30
2018-04-29T20:17:23.941Z,95232.94
2018-04-29T20:19:49.942Z,95232.54
2018-04-29T20:22:16.030Z,95233.34
2018-04-29T20:24:42.090Z,95232.94
2018-04-29T20:27:08.094Z,95233.92
2018-04-29T20:29:34.093Z,95240.02
2018-04-29T20:32:00.116Z,95237.49
2018-04-29T20:34:26.121Z,95248.95
2018-04-29T20:36:52.133Z,95244.23
2018-04-29T20:39:18.136Z,95238.53
2018-04-29T20:41:44.146Z,95239.00
2018-04-29T20:44:10.147Z,95244.36
2018-04-29T20:46:36.154Z,95239.95
2018-04-29T20:49:02.178Z,95245.27
2018-04-29T20:51:28.184Z,95242.08
2018-04-29T20:53:54.187Z,95246.80
2018-04-29T20:56:20.231Z,95248.58
2018-04-29T20:58:46.205Z,95255.32
2018-04-29T21:01:12.211Z,95256.30
2018-04-29T21:03:38.221Z,95253.53
2018-04-29T21:06:04.230Z,95258.08
2018-04-29T21:08:30.234Z,95256.70
2018-04-29T21:10:56.254Z,95264.99
2018-04-29T21:13:22.259Z,95263.98
2018-04-29T21:15:48.267Z,95267.93
2018-04-29T21:18:14.266Z,95265.53
2018-04-29T21:20:40.276Z,95269.85
2018-04-29T21:23:06.282Z,95263.14
2018-04-29T21:25:32.283Z,95266.48
2018-04-29T21:27:58.293Z,95261.13
2018-04-29T21:30:24.306Z,95265.06
2018-04-29T21:32:50.323Z,95265.64
2018-04-29T21:35:16.325Z,95267.59
2018-04-29T21:37:42.328Z,95279.66
2018-04-29T21:40:08.365Z,95276.26
2018-04-29T21:42:34.370Z,95279.42
2018-04-29T21:45:00.407Z,95280.61
2018-04-29T21:47:26.377Z,95276.86
2018-04-29T21:49:52.419Z,95276.63
2018-04-29T21:52:18.450Z,95280.37
2018-04-29T21:54:44.418Z,95274.64
2018-04-29T21:57:10.433Z,95285.29
2018-04-29T21:59:36.470Z,95279.93
2018-04-29T22:02:02.449Z,95277.16
2018-04-29T22:04:28.458Z,95275.78
2018-04-29T22:06:54.491Z,95272.82
2018-04-29T22:09:20.494Z,95267.86
2018-04-29T22:11:46.499Z,95266.08
2018-04-29T22:14:12.534Z,95263.52
2018-04-29T22:16:38.506Z,95267.26
2018-04-29T22:19:04.514Z,95271.23
2018-04-29T22:21:30.526Z,95270.59
2018-04-29T22:23:56.529Z,95270.19
2018-04-29T22:26:22.535Z,95268.81
2018-04-29T22:28:48.546Z,95272.18
2018-04-29T22:31:14.541Z,95263.08
2018-04-29T22:33:40.549Z,95266.82
2018-04-29T22:36:06.586Z,95266.42
2018-04-29T22:38:32.560Z,95264.06
2018-04-29T22:40:58.561Z,95262.88
2018-04-29T22:43:24.597Z,95256.95
2018-04-29T22:45:50.605Z,95260.28
2018-04-29T22:48:16.610Z,95255.73
2018-04-29T22:50:42.613Z,95246.64
2018-04-29T22:53:08.628Z,95247.81
2018-04-29T22:55:34.638Z,95247.24
2018-04-29T22:58:00.644Z,95247.81
2018-04-29T23:00:26.649Z,95253.34
2018-04-29T23:02:52.660Z,95251.96
2018-04-29T23:05:18.670Z,95247.58
2018-04-29T23:07:44.713Z,95252.53
2018-04-29T23:10:10.705Z,95242.26
2018-04-29T23:12:36.710Z,95244.05
2018-04-29T23:15:02.682Z,95243.64
2018-04-29T23:17:28.695Z,95239.90
2018-04-29T23:19:54.711Z,95238.69
2018-04-29T23:22:20.757Z,95237.70
2018-04-29T23:24:46.790Z,95235.11
2018-04-29T23:27:12.793Z,95237.50
2018-04-29T23:29:38.792Z,95236.47
2018-04-29T23:32:04.796Z,95229.96
2018-04-29T23:34:30.882Z,95227.00
2018-04-29T23:36:56.859Z,95225.21
2018-04-29T23:39:22.877Z,95221.64
2018-04-29T23:41:48.883Z,95218.10
2018-04-29T23:44:14.895Z,95210.80
2018-04-29T23:46:40.903Z,95208.43
2018-04-29T23:49:06.904Z,95201.13
2018-04-29T23:51:32.940Z,95205.27
2018-04-29T23:53:58.947Z,95204.86
2018-04-29T23:56:24.978Z,95203.65
2018-04-29T23:58:50.977Z,95206.41
